Time;durP1;ratioP1;P1;durP2;ratioP2;P2;SDS_P1;SDS_P2;PMS_P1;PMS_P2;Temp;Humidity;BMP_temperature;BMP_pressure;BME280_temperature;BME280_humidity;BME280_pressure;Samples;Min_cycle;Max_cycle;Signal;HPM_P1;HPM_P2
2022/12/05 00:01:56;;;;;;;15.07;6.22;;;4.60;99.90;;;4.41;100.00;100970.25;5142811;28;20101;-72
2022/12/05 00:04:29;;;;;;;16.10;7.15;;;4.60;99.90;;;4.42;100.00;100974.59;5142567;28;20046;-72
2022/12/05 00:07:01;;;;;;;14.68;6.38;;;4.70;99.90;;;4.43;100.00;100981.53;5142798;28;20058;-72
2022/12/05 00:09:34;;;;;;;13.20;5.97;;;4.60;99.90;;;4.43;100.00;100972.91;5142876;28;20046;-72
2022/12/05 00:12:06;;;;;;;14.73;6.07;;;4.70;99.90;;;4.43;100.00;100968.63;5142661;28;20129;-71
2022/12/05 00:14:38;;;;;;;14.70;6.10;;;4.70;99.90;;;4.43;100.00;100973.78;5142425;28;20499;-71
2022/12/05 00:17:10;;;;;;;15.43;6.82;;;4.60;99.90;;;4.44;100.00;100974.72;5142394;28;20122;-72
2022/12/05 00:19:44;;;;;;;15.82;6.10;;;4.70;99.90;;;4.43;100.00;100989.28;5142459;28;20053;-72
2022/12/05 00:22:16;;;;;;;16.10;6.85;;;4.70;99.90;;;4.42;100.00;100979.75;5142330;28;20054;-71
2022/12/05 00:24:48;;;;;;;17.88;7.25;;;4.60;99.90;;;4.43;100.00;100978.97;5144849;28;20051;-72
2022/12/05 00:27:20;;;;;;;16.77;7.20;;;4.60;99.90;;;4.43;100.00;100978.06;5144458;28;20065;-73
2022/12/05 00:29:52;;;;;;;16.33;6.57;;;4.70;99.90;;;4.44;100.00;100987.63;5146209;28;20395;-71
2022/12/05 00:32:24;;;;;;;17.05;7.05;;;4.70;99.90;;;4.42;100.00;100984.94;5145996;28;20043;-71
2022/12/05 00:34:58;;;;;;;16.02;6.55;;;4.70;99.90;;;4.43;100.00;100991.88;5145954;28;20046;-71
2022/12/05 00:37:31;;;;;;;16.73;7.25;;;4.70;99.90;;;4.42;100.00;100991.78;5145944;28;20574;-71
2022/12/05 00:40:05;;;;;;;17.25;6.97;;;4.60;99.90;;;4.41;100.00;100982.25;5146000;28;20150;-72
2022/12/05 00:42:37;;;;;;;16.45;6.63;;;4.60;99.90;;;4.40;100.00;100976.19;5146297;28;20051;-72
2022/12/05 00:45:11;;;;;;;16.42;6.22;;;4.60;99.90;;;4.42;100.00;100984.94;5145952;28;20059;-72
2022/12/05 00:47:44;;;;;;;16.77;6.70;;;4.60;99.90;;;4.41;100.00;100977.97;5144607;28;20059;-72
2022/12/05 00:50:17;;;;;;;16.00;6.90;;;4.60;99.90;;;4.42;100.00;100979.75;5145868;28;20038;-74
2022/12/05 00:52:50;;;;;;;17.77;7.30;;;4.60;99.90;;;4.43;100.00;100978.97;5142356;28;20050;-71
2022/12/05 00:55:22;;;;;;;15.15;6.45;;;4.70;99.90;;;4.43;100.00;100975.50;5146059;28;20081;-71
2022/12/05 00:57:54;;;;;;;12.85;6.05;;;4.60;99.90;;;4.42;100.00;100978.88;5145938;28;20051;-72
2022/12/05 01:00:26;;;;;;;14.85;6.30;;;4.60;99.90;;;4.42;100.00;100982.34;5145931;28;20408;-71
2022/12/05 01:02:58;;;;;;;13.52;5.60;;;4.70;99.90;;;4.41;100.00;100985.72;5145663;28;20470;-72
2022/12/05 01:05:34;;;;;;;12.57;6.07;;;4.60;99.90;;;4.40;100.00;100976.19;5144514;28;20551;-72
2022/12/05 01:08:06;;;;;;;14.35;6.78;;;4.60;99.90;;;4.40;100.00;100978.78;5145573;28;20046;-73
2022/12/05 01:10:38;;;;;;;13.80;6.50;;;4.60;99.90;;;4.41;100.00;100988.31;5145860;28;20053;-74
2022/12/05 01:13:10;;;;;;;16.48;6.57;;;4.60;99.90;;;4.41;100.00;100988.31;5145820;28;20049;-72
2022/12/05 01:15:42;;;;;;;15.25;6.07;;;4.60;99.90;;;4.40;100.00;100985.63;5146147;28;20083;-72
2022/12/05 01:18:15;;;;;;;15.77;6.18;;;4.60;99.90;;;4.41;100.00;100982.25;5144471;28;20049;-71
2022/12/05 01:20:49;;;;;;;16.42;6.68;;;4.60;99.90;;;4.40;100.00;100986.53;5144230;28;20073;-73
2022/12/05 01:23:22;;;;;;;14.18;6.13;;;4.60;99.90;;;4.40;100.00;100991.69;5143949;28;20051;-71
2022/12/05 01:25:54;;;;;;;14.10;6.22;;;4.70;99.90;;;4.39;100.00;100992.50;5145496;28;20053;-72
2022/12/05 01:28:27;;;;;;;15.07;6.55;;;4.60;99.90;;;4.40;100.00;101001.13;5145268;28;20050;-72
2022/12/05 01:30:59;;;;;;;14.38;5.85;;;4.60;99.90;;;4.39;100.00;100997.66;5145260;28;20127;-72
2022/12/05 01:33:31;;;;;;;12.68;5.57;;;4.60;99.90;;;4.39;100.00;101004.50;5145201;28;20651;-72
2022/12/05 01:36:06;;;;;;;18.13;7.00;;;4.60;99.90;;;4.40;100.00;101006.28;5144859;28;20065;-72
2022/12/05 01:38:40;;;;;;;;;;;4.60;99.90;;;4.40;100.00;101001.13;5145540;28;20061;-72
2022/12/05 01:41:16;;;;;;;16.23;5.90;;;4.60;99.90;;;4.41;100.00;101005.47;5160196;28;19952;-72
2022/12/05 01:44:02;;;;;;;14.07;5.60;;;4.70;99.90;;;4.43;100.00;101016.78;5144788;28;20410;-73
2022/12/05 01:46:38;;;;;;;14.98;6.10;;;4.60;99.90;;;4.44;100.00;101013.44;5143891;28;20058;-72
2022/12/05 01:49:15;;;;;;;13.70;6.10;;;4.70;99.90;;;4.44;100.00;101014.34;5144768;28;20046;-72
2022/12/05 01:51:52;;;;;;;14.52;6.00;;;4.70;99.90;;;4.45;100.00;101020.38;5145012;28;20073;-72
2022/12/05 01:54:24;;;;;;;16.60;6.28;;;4.70;99.90;;;4.45;100.00;101015.22;5145034;28;20047;-72
2022/12/05 01:57:08;;;;;;;13.90;5.78;;;4.70;99.90;;;4.45;100.00;101015.22;5144715;28;20054;-73
2022/12/05 01:59:44;;;;;;;15.00;6.50;;;4.70;99.90;;;4.44;100.00;101023.75;5144698;28;20042;-72
2022/12/05 02:02:17;;;;;;;15.30;6.22;;;4.70;99.90;;;4.43;100.00;101028.00;5145032;28;20051;-72
2022/12/05 02:04:59;;;;;;;15.63;6.18;;;4.70;99.90;;;4.42;100.00;101021.06;5144526;28;20038;-72
2022/12/05 02:07:33;;;;;;;15.75;6.32;;;4.60;99.90;;;4.41;100.00;101024.44;5145012;28;20066;-72
2022/12/05 02:10:08;;;;;;;14.93;6.05;;;4.60;99.90;;;4.41;100.00;101024.44;5144557;28;20042;-72
2022/12/05 02:12:41;;;;;;;14.10;5.55;;;4.70;99.90;;;4.42;100.00;101035.66;5143134;28;20575;-72
2022/12/05 02:15:29;;;;;;;14.20;6.00;;;4.60;99.90;;;4.42;100.00;101025.34;5144285;28;20050;-72
2022/12/05 02:18:15;;;;;;;;;;;4.70;99.90;;;4.40;100.00;101021.78;5144896;28;20067;-72
2022/12/05 02:21:07;;;;;;;13.75;5.78;;;4.60;99.90;;;4.36;100.00;101016.41;5144357;28;19928;-74
2022/12/05 02:24:20;;;;;;;14.90;6.15;;;4.60;99.90;;;4.32;100.00;101027.34;5143008;28;20051;-72
2022/12/05 02:27:10;;;;;;;21.10;8.20;;;4.60;99.90;;;4.23;100.00;101028.44;5144167;28;20137;-73
2022/12/05 02:30:02;;;;;;;15.95;7.60;;;4.50;99.90;;;4.18;100.00;101025.59;5144407;28;20047;-72
2022/12/05 02:33:00;;;;;;;15.88;6.72;;;4.40;99.90;;;4.17;100.00;101022.88;5144191;28;20098;-73
2022/12/05 02:35:49;;;;;;;14.70;6.53;;;4.40;99.90;;;4.17;100.00;101023.78;5142834;28;20046;-72
2022/12/05 02:38:30;;;;;;;20.67;7.80;;;4.40;99.90;;;4.13;100.00;101024.41;5160004;28;20530;-73
2022/12/05 02:41:14;;;;;;;18.23;7.90;;;4.40;99.90;;;4.08;100.00;101028.34;5144909;28;20043;-72
2022/12/05 02:43:53;;;;;;;18.15;7.65;;;4.40;99.90;;;4.01;100.00;101029.66;5144921;28;20492;-73
2022/12/05 02:46:30;;;;;;;20.58;7.90;;;4.30;99.90;;;3.94;100.00;101030.06;5143907;28;20467;-72
2022/12/05 02:49:07;;;;;;;21.02;8.68;;;4.30;99.90;;;3.93;100.00;101032.53;5144899;28;20061;-72
2022/12/05 02:51:44;;;;;;;16.65;7.50;;;4.30;99.90;;;3.90;100.00;101038.38;5159363;28;20057;-72
2022/12/05 02:54:21;;;;;;;19.92;7.18;;;4.20;99.90;;;3.90;100.00;101022.00;5144527;28;20038;-72
2022/12/05 02:56:54;;;;;;;17.33;7.30;;;4.20;99.90;;;3.89;100.00;101031.44;5144129;28;20047;-73
2022/12/05 02:59:27;;;;;;;15.60;6.70;;;4.20;99.90;;;3.90;100.00;101032.31;5143837;28;20461;-72
2022/12/05 03:02:00;;;;;;;16.67;6.55;;;4.20;99.90;;;3.88;100.00;101036.50;5143679;28;20503;-73
2022/12/05 03:04:33;;;;;;;17.92;7.60;;;4.20;99.90;;;3.83;100.00;101031.03;5143530;28;20057;-71
2022/12/05 03:07:10;;;;;;;18.98;8.18;;;4.10;99.90;;;3.79;100.00;101040.28;5143350;28;20073;-74
2022/12/05 03:09:48;;;;;;;14.80;6.72;;;4.10;99.90;;;3.76;100.00;101039.16;5144007;28;20046;-72
2022/12/05 03:12:23;;;;;;;17.67;7.03;;;4.10;99.90;;;3.75;100.00;101050.28;5143470;28;20117;-72
2022/12/05 03:15:01;;;;;;;19.40;8.10;;;4.10;99.90;;;3.73;100.00;101049.28;5143631;28;20137;-72
2022/12/05 03:17:42;;;;;;;19.55;8.63;;;4.10;99.90;;;3.65;100.00;101046.22;5144374;28;20057;-71
2022/12/05 03:20:23;;;;;;;17.00;7.40;;;4.00;99.90;;;3.57;100.00;101042.19;5143193;28;20065;-72
2022/12/05 03:23:01;;;;;;;20.73;8.23;;;3.90;99.90;;;3.52;100.00;101044.50;5144404;28;20479;-73
2022/12/05 03:25:41;;;;;;;18.70;7.70;;;3.90;99.90;;;3.50;100.00;101051.22;5143049;28;20098;-72
2022/12/05 03:28:24;;;;;;;17.05;7.25;;;3.80;99.90;;;3.46;100.00;101045.78;5158284;28;20050;-73
2022/12/05 03:31:01;;;;;;;15.27;7.03;;;3.80;99.90;;;3.43;100.00;101050.72;5143226;28;20047;-72
2022/12/05 03:33:41;;;;;;;17.67;7.07;;;3.70;99.90;;;3.43;100.00;101059.31;5157974;28;20423;-72
2022/12/05 03:36:19;;;;;;;16.63;7.35;;;3.70;99.90;;;3.42;100.00;101054.06;5143153;28;20052;-72
2022/12/05 03:38:57;;;;;;;16.88;7.30;;;3.70;99.90;;;3.38;100.00;101059.81;5142952;28;20499;-73
2022/12/05 03:41:38;;;;;;;17.40;7.78;;;3.70;99.90;;;3.35;100.00;101068.22;5158563;28;20053;-73
2022/12/05 03:44:14;;;;;;;17.23;6.93;;;3.60;99.90;;;3.30;100.00;101060.97;5158285;28;20057;-73
2022/12/05 03:46:52;;;;;;;17.38;7.70;;;3.60;99.90;;;3.31;100.00;101055.91;5144233;28;20066;-73
2022/12/05 03:49:32;;;;;;;15.98;7.93;;;3.60;99.90;;;3.26;100.00;101059.91;5144353;28;20053;-72
2022/12/05 03:52:10;;;;;;;18.05;6.70;;;3.60;99.90;;;3.24;100.00;101061.44;5158982;28;20046;-72
2022/12/05 03:54:46;;;;;;;18.35;7.20;;;3.50;99.90;;;3.24;100.00;101071.75;5143895;28;20047;-72
2022/12/05 03:57:23;;;;;;;15.20;7.15;;;3.60;99.90;;;3.22;100.00;101068.19;5143050;28;20051;-72
2022/12/05 04:00:00;;;;;;;17.80;7.55;;;3.60;99.90;;;3.20;100.00;101070.66;5147080;28;20499;-72
2022/12/05 04:02:44;;;;;;;19.30;7.63;;;3.50;99.90;;;3.16;100.00;101068.66;5147099;28;20062;-72
2022/12/05 04:05:23;;;;;;;16.88;6.50;;;3.50;99.90;;;3.13;100.00;101072.69;5145358;28;20393;-72
2022/12/05 04:08:01;;;;;;;17.00;7.20;;;3.40;99.90;;;3.11;100.00;101075.16;5161864;28;20074;-72
2022/12/05 04:10:47;;;;;;;17.50;7.63;;;3.40;99.90;;;3.10;100.00;101078.53;5147196;28;20072;-73
2022/12/05 04:13:29;;;;;;;16.55;7.13;;;3.40;99.90;;;3.09;100.00;101073.28;5161809;28;20053;-72
2022/12/05 04:19:05;;;;;;;14.95;6.30;;;3.40;99.90;;;3.09;100.00;101081.03;5146776;28;20055;-73
2022/12/05 04:21:42;;;;;;;17.85;7.18;;;3.40;99.90;;;3.09;100.00;101086.16;5146746;28;20057;-73
2022/12/05 04:27:25;;;;;;;14.80;6.50;;;3.40;99.90;;;3.09;100.00;101078.44;5113488;28;20137;-72
2022/12/05 04:30:07;;;;;;;12.98;5.97;;;3.40;99.90;;;3.07;100.00;101078.34;5146802;28;20047;-72
2022/12/05 04:32:46;;;;;;;13.63;5.88;;;3.40;99.90;;;3.08;100.00;101085.28;5161685;28;20055;-73
2022/12/05 04:35:25;;;;;;;13.35;6.55;;;3.40;99.90;;;3.08;100.00;101087.84;5146296;28;20157;-73
2022/12/05 04:38:05;;;;;;;14.73;6.38;;;3.40;99.90;;;3.07;100.00;101087.75;5146361;28;20058;-72
2022/12/05 04:40:44;;;;;;;14.90;6.60;;;3.40;99.90;;;3.05;100.00;101094.47;5146577;28;20534;-72
2022/12/05 04:43:18;;;;;;;14.27;6.28;;;3.30;99.90;;;3.02;100.00;101094.25;5146067;28;20057;-73
2022/12/05 04:45:52;;;;;;;15.60;6.30;;;3.30;99.90;;;3.01;100.00;101084.75;5161195;28;20057;-71
2022/12/05 04:48:28;;;;;;;13.90;5.57;;;3.30;99.90;;;3.00;100.00;101091.59;5146188;28;20045;-72
2022/12/05 04:51:00;;;;;;;;;;;3.30;99.90;;;3.02;100.00;101094.25;5161523;28;20169;-73
2022/12/05 04:53:34;;;;;;;15.15;5.97;;;3.30;99.90;;;3.01;100.00;101082.19;5145690;28;19922;-72
2022/12/05 04:56:07;;;;;;;13.77;5.50;;;3.30;99.90;;;2.99;100.00;101087.19;5146089;28;20046;-72
2022/12/05 04:58:39;;;;;;;15.10;6.55;;;3.30;99.90;;;2.96;100.00;101085.31;5145940;28;20046;-72
2022/12/05 05:01:18;;;;;;;15.70;6.13;;;3.30;99.90;;;2.93;100.00;101085.13;5146134;28;20049;-72
2022/12/05 05:03:56;;;;;;;14.13;6.35;;;3.20;99.90;;;2.93;100.00;101082.53;5145415;28;20050;-72
2022/12/05 05:06:29;;;;;;;15.48;6.57;;;3.30;99.90;;;2.92;100.00;101087.56;5146014;28;20492;-73
2022/12/05 05:09:03;;;;;;;16.70;6.68;;;3.20;99.90;;;2.90;100.00;101084.88;5160537;28;20141;-73
2022/12/05 05:11:37;;;;;;;15.90;6.88;;;3.20;99.90;;;2.89;100.00;101090.81;5145660;28;20226;-74
2022/12/05 05:14:10;;;;;;;15.00;7.75;;;3.20;99.90;;;2.87;100.00;101087.25;5145117;28;20046;-73
2022/12/05 05:16:43;;;;;;;15.98;6.88;;;3.20;99.90;;;2.90;100.00;101086.56;5145673;28;20393;-73
2022/12/05 05:19:16;;;;;;;15.80;7.00;;;3.20;99.90;;;2.89;100.00;101085.69;5146009;28;20035;-73
2022/12/05 05:21:48;;;;;;;13.70;6.35;;;3.20;99.90;;;2.90;100.00;101099.44;5145625;28;20053;-73
2022/12/05 05:24:24;;;;;;;14.45;7.05;;;3.20;99.90;;;2.89;100.00;101103.69;5145054;28;20046;-73
2022/12/05 05:26:56;;;;;;;16.15;7.03;;;3.20;99.90;;;2.92;100.00;101098.75;5145392;28;20046;-72
2022/12/05 05:29:29;;;;;;;15.48;6.70;;;3.20;99.90;;;2.93;100.00;101104.78;5145313;28;20133;-72
2022/12/05 05:32:02;;;;;;;14.25;5.88;;;3.20;99.90;;;2.92;100.00;101103.00;5145587;28;20046;-73
2022/12/05 05:34:34;;;;;;;15.75;6.68;;;3.20;99.90;;;2.92;100.00;101108.16;5144898;28;20046;-71
2022/12/05 05:37:06;;;;;;;14.98;6.68;;;3.20;99.90;;;2.91;100.00;101101.22;5144997;28;20128;-72
2022/12/05 05:39:41;;;;;;;15.57;6.93;;;3.20;99.90;;;2.92;100.00;101100.44;5160163;28;20055;-72
2022/12/05 05:42:13;;;;;;;16.67;7.03;;;3.20;99.90;;;2.90;100.00;101102.91;5160324;28;20065;-73
2022/12/05 05:44:45;;;;;;;19.73;7.32;;;3.20;99.90;;;2.89;100.00;101097.66;5293705;23;20045;-69
2022/12/05 05:47:18;;;;;;;18.00;7.05;;;3.20;99.90;;;2.88;100.00;101101.91;5185598;28;20125;-71
2022/12/05 05:49:50;;;;;;;15.57;7.25;;;3.20;99.90;;;2.91;100.00;101115.00;5185271;28;20049;-69
2022/12/05 05:52:23;;;;;;;14.18;6.25;;;3.20;99.90;;;2.93;100.00;101100.56;5184376;28;20056;-70
2022/12/05 05:54:57;;;;;;;17.90;7.15;;;3.20;99.90;;;2.94;100.00;101104.94;5183855;28;20502;-71
2022/12/05 05:57:30;;;;;;;15.73;7.05;;;3.30;99.90;;;2.95;100.00;101098.09;5185458;28;20042;-70
2022/12/05 06:00:06;;;;;;;18.25;7.32;;;3.30;99.90;;;2.95;100.00;101104.13;5185423;28;20050;-68
2022/12/05 06:02:39;;;;;;;17.90;7.68;;;3.30;99.90;;;2.93;100.00;101108.28;5185606;28;20140;-69
2022/12/05 06:05:11;;;;;;;15.82;7.20;;;3.20;99.90;;;2.90;100.00;101110.63;5185467;28;20052;-68
2022/12/05 06:07:43;;;;;;;18.88;8.35;;;3.20;99.90;;;2.90;100.00;101123.50;5183845;28;20058;-70
2022/12/05 06:10:18;;;;;;;21.38;8.68;;;3.20;99.90;;;2.90;100.00;101115.78;5185386;28;20049;-70
2022/12/05 06:12:50;;;;;;;20.23;8.27;;;3.20;99.90;;;2.92;100.00;101118.47;5185272;28;20077;-69
2022/12/05 06:15:23;;;;;;;19.90;7.10;;;3.20;99.90;;;2.94;100.00;101120.38;5183580;28;20053;-70
2022/12/05 06:17:57;;;;;;;18.70;8.40;;;3.30;99.90;;;2.95;100.00;101124.75;5185359;28;20070;-72
2022/12/05 06:20:29;;;;;;;22.90;9.40;;;3.30;99.90;;;2.90;100.00;101126.09;5185107;28;20100;-71
2022/12/05 06:23:01;;;;;;;20.73;8.23;;;3.20;99.90;;;2.88;100.00;101127.66;5184521;28;20475;-70
2022/12/05 06:25:35;;;;;;;22.85;8.85;;;3.20;99.90;;;2.88;100.00;101127.66;5184673;28;20418;-71
2022/12/05 06:28:09;;;;;;;20.60;9.18;;;3.20;99.90;;;2.89;100.00;101118.25;5183620;28;20525;-72
2022/12/05 06:30:41;;;;;;;17.73;8.25;;;3.30;99.90;;;2.90;100.00;101120.03;5184458;28;20054;-71
2022/12/05 06:33:13;;;;;;;18.70;8.30;;;3.30;99.90;;;2.93;100.00;101123.75;5183480;28;20046;-71
2022/12/05 06:35:46;;;;;;;21.65;8.07;;;3.20;99.90;;;2.93;100.00;101123.75;5183127;28;20410;-71
2022/12/05 06:38:18;;;;;;;20.80;9.10;;;3.30;99.90;;;2.93;100.00;101125.41;5183303;28;20056;-71
2022/12/05 06:40:52;;;;;;;26.42;9.77;;;3.30;99.90;;;2.96;100.00;101125.63;5184329;28;20046;-70
2022/12/05 06:43:25;;;;;;;19.85;8.35;;;3.30;99.90;;;2.98;100.00;101127.50;5184655;28;20117;-71
2022/12/05 06:45:57;;;;;;;24.75;9.20;;;3.30;99.90;;;2.98;100.00;101132.66;5184578;28;20037;-69
2022/12/05 06:48:29;;;;;;;21.05;8.95;;;3.30;99.90;;;3.01;100.00;101131.13;5184436;28;20136;-69
2022/12/05 06:51:01;;;;;;;25.45;11.23;;;3.30;99.90;;;3.00;100.00;101135.38;5184182;28;20528;-69
2022/12/05 06:53:33;;;;;;;28.10;11.57;;;3.30;99.90;;;2.98;100.00;101134.34;5183017;28;20060;-70
2022/12/05 06:56:11;;;;;;;24.10;9.65;;;3.30;99.90;;;2.91;100.00;101152.72;5184305;28;20038;-70
2022/12/05 06:58:47;;;;;;;21.80;9.90;;;3.30;99.90;;;2.93;100.00;101146.91;5184466;28;20038;-70
2022/12/05 07:01:39;;;;;;;22.17;10.25;;;3.30;99.90;;;2.95;100.00;101155.63;5184228;28;20495;-68
2022/12/05 07:04:15;;;;;;;21.77;9.77;;;3.30;99.90;;;2.97;100.00;101146.34;5183495;28;20046;-60
2022/12/05 07:06:48;;;;;;;22.20;9.38;;;3.30;99.90;;;3.01;100.00;101154.28;5183989;28;20049;-61
2022/12/05 07:09:44;;;;;;;22.08;8.43;;;3.30;99.90;;;3.03;100.00;101157.84;5184038;28;20057;-61
2022/12/05 07:12:18;;;;;;;20.92;8.52;;;3.40;99.90;;;3.04;100.00;101160.53;5185314;28;20131;-62
2022/12/05 07:14:51;;;;;;;23.58;9.65;;;3.40;99.90;;;3.03;100.00;101160.44;5184469;28;20128;-61
2022/12/05 07:17:23;;;;;;;21.80;9.13;;;3.40;99.90;;;3.04;100.00;101159.66;5184778;28;20128;-61
2022/12/05 07:19:55;;;;;;;18.60;7.78;;;3.40;99.90;;;3.07;100.00;101165.03;5184065;28;20149;-60
2022/12/05 07:22:27;;;;;;;23.05;9.98;;;3.40;99.90;;;3.06;100.00;101163.22;5182964;28;20046;-60
2022/12/05 07:24:59;;;;;;;19.55;9.20;;;3.40;99.90;;;3.06;100.00;101171.81;5182952;28;20127;-61
2022/12/05 07:27:33;;;;;;;20.83;9.07;;;3.40;99.90;;;3.01;100.00;101178.38;5183742;28;20053;-62
2022/12/05 07:30:07;;;;;;;21.52;8.10;;;3.40;99.90;;;2.98;100.00;101170.41;5183822;28;20406;-61
2022/12/05 07:32:39;;;;;;;20.90;9.20;;;3.40;99.90;;;2.99;100.00;101169.63;5183274;28;20065;-59
2022/12/05 07:35:11;;;;;;;18.25;8.40;;;3.30;99.90;;;3.03;100.00;101171.63;5183578;28;20497;-59
2022/12/05 07:37:43;;;;;;;17.65;7.50;;;3.40;99.90;;;3.08;100.00;101177.13;5183373;28;20490;-58
2022/12/05 07:40:16;;;;;;;21.02;8.75;;;3.40;99.90;;;3.10;100.00;101185.84;5182183;28;20477;-58
2022/12/05 07:42:49;;;;;;;16.30;7.13;;;3.40;99.90;;;3.10;100.00;101181.56;5184246;28;20046;-58
2022/12/05 07:45:22;;;;;;;22.30;9.35;;;3.40;99.90;;;3.10;100.00;101181.56;5183269;28;20046;-59
2022/12/05 07:47:54;;;;;;;20.52;8.70;;;3.50;99.90;;;3.11;100.00;101182.47;5183568;28;20045;-58
2022/12/05 07:50:26;;;;;;;16.38;7.47;;;3.50;99.90;;;3.13;100.00;101186.97;5182083;28;20093;-58
2022/12/05 07:52:58;;;;;;;20.73;8.40;;;3.50;99.90;;;3.15;100.00;101189.63;5183478;28;20057;-58
2022/12/05 07:55:30;;;;;;;20.02;8.63;;;3.50;99.90;;;3.17;100.00;101195.78;5183230;28;20042;-58
2022/12/05 07:58:03;;;;;;;15.93;7.25;;;3.50;99.90;;;3.18;100.00;101197.56;5183355;28;20052;-59
2022/12/05 08:00:36;;;;;;;20.13;7.38;;;3.50;99.90;;;3.19;100.00;101195.09;5181885;28;20058;-61
2022/12/05 08:03:08;;;;;;;18.83;7.03;;;3.50;99.90;;;3.68;100.00;101192.47;5183215;28;20057;-60
2022/12/05 08:05:40;;;;;;;17.08;8.05;;;4.00;99.90;;;3.68;100.00;101203.66;5183263;28;20049;-59
2022/12/05 08:08:12;;;;;;;19.42;8.00;;;4.00;99.90;;;3.61;100.00;101198.00;5183269;28;20415;-58
2022/12/05 08:10:44;;;;;;;17.40;8.38;;;4.00;99.90;;;3.54;100.00;101207.88;5183268;28;20128;-58
2022/12/05 08:13:17;;;;;;;16.83;7.35;;;3.90;99.90;;;3.53;100.00;101200.94;5181554;28;20053;-60
2022/12/05 08:15:49;;;;;;;18.63;8.00;;;3.90;99.90;;;3.63;100.00;101209.28;5182634;28;20045;-58
2022/12/05 08:18:21;;;;;;;17.52;7.57;;;3.90;99.90;;;3.63;100.00;101201.56;5182995;28;20054;-57
2022/12/05 08:20:53;;;;;;;19.90;8.52;;;4.00;99.90;;;3.59;100.00;101203.06;5180473;28;20050;-58
2022/12/05 08:23:26;;;;;;;22.60;10.70;;;3.90;99.90;;;3.58;100.00;101216.69;5182303;28;20057;-58
2022/12/05 08:26:02;;;;;;;21.17;9.05;;;3.90;99.90;;;3.53;100.00;101212.94;5182202;28;20038;-58
2022/12/05 08:28:37;;;;;;;19.73;8.35;;;3.90;99.90;;;3.59;100.00;101220.22;5182318;28;20046;-59
2022/12/05 08:31:12;;;;;;;21.77;9.35;;;3.90;99.90;;;3.56;100.00;101220.88;5182950;28;20046;-58
2022/12/05 08:33:44;;;;;;;20.23;8.52;;;3.90;99.90;;;3.56;100.00;101220.88;5182364;28;20077;-59
2022/12/05 08:36:18;;;;;;;24.02;10.93;;;3.90;99.90;;;3.55;100.00;101224.25;5182583;28;20531;-59
2022/12/05 08:38:50;;;;;;;25.88;10.88;;;3.80;99.90;;;3.55;100.00;101224.25;5182856;28;20053;-59
2022/12/05 08:41:27;;;;;;;21.30;9.43;;;3.80;99.90;;;3.56;100.00;101227.72;5182766;28;20402;-59
2022/12/05 08:44:04;;;;;;;21.73;9.43;;;3.90;99.90;;;3.60;100.00;101229.72;5181451;28;20045;-59
2022/12/05 08:46:38;;;;;;;19.80;9.00;;;3.90;99.90;;;3.65;100.00;101223.19;5184837;28;20610;-60
2022/12/05 08:49:11;;;;;;;21.10;8.93;;;3.90;99.90;;;3.69;100.00;101227.78;5186335;28;20042;-59
2022/12/05 08:51:44;;;;;;;18.67;8.85;;;4.00;99.90;;;3.72;100.00;101231.47;5185988;28;20049;-58
2022/12/05 08:54:17;;;;;;;22.52;8.40;;;4.00;99.90;;;3.75;100.00;101233.34;5185822;28;20045;-58
2022/12/05 08:56:51;;;;;;;18.55;8.88;;;4.00;99.90;;;3.76;100.00;101230.88;5184299;28;20040;-58
2022/12/05 08:59:25;;;;;;;22.05;8.98;;;4.00;99.90;;;3.79;100.00;101235.38;5186008;28;20042;-57
2022/12/05 09:01:57;;;;;;;19.10;8.70;;;4.00;99.90;;;3.88;100.00;101235.97;5186105;28;20045;-59
2022/12/05 09:04:29;;;;;;;19.63;8.40;;;4.10;99.90;;;3.93;100.00;101244.03;5186244;28;20038;-60
2022/12/05 09:07:02;;;;;;;19.80;8.80;;;4.10;99.90;;;3.92;100.00;101238.00;5186283;28;20097;-58
2022/12/05 09:09:34;;;;;;;18.85;8.05;;;4.10;99.90;;;3.94;100.00;101241.56;5186329;28;20041;-59
2022/12/05 09:12:06;;;;;;;16.00;6.85;;;4.20;99.90;;;3.98;100.00;101242.69;5185840;28;20049;-58
2022/12/05 09:14:40;;;;;;;13.77;6.78;;;4.20;99.90;;;4.00;100.00;101239.41;5185842;28;20050;-59
2022/12/05 09:17:12;;;;;;;17.10;7.78;;;4.20;99.90;;;4.00;100.00;101241.09;5185865;28;20049;-58
2022/12/05 09:19:44;;;;;;;14.07;6.43;;;4.30;99.90;;;4.02;100.00;101244.66;5185891;28;20057;-59
2022/12/05 09:22:17;;;;;;;11.95;5.85;;;4.30;99.90;;;4.04;100.00;101248.22;5167651;28;20050;-60
2022/12/05 09:24:49;;;;;;;12.80;6.57;;;4.30;99.90;;;4.03;100.00;101254.19;5168024;28;20040;-61
2022/12/05 09:27:21;;;;;;;15.13;6.50;;;4.30;99.90;;;4.02;100.00;101254.97;5176243;28;20052;-58
2022/12/05 09:29:54;;;;;;;13.50;6.43;;;4.30;99.90;;;4.01;100.00;101254.09;5173897;28;20046;-60
2022/12/05 09:32:26;;;;;;;15.70;7.78;;;4.20;99.90;;;4.03;100.00;101257.66;5184247;28;20053;-62
2022/12/05 09:34:58;;;;;;;14.30;7.72;;;4.30;99.90;;;4.04;100.00;101264.63;5174006;28;20046;-59
2022/12/05 09:37:31;;;;;;;13.27;6.65;;;4.30;99.90;;;4.08;100.00;101260.56;5165775;28;20042;-60
2022/12/05 09:40:03;;;;;;;15.90;7.28;;;4.30;99.90;;;4.13;100.00;101255.72;5180948;28;20049;-59
2022/12/05 09:42:43;;;;;;;13.40;6.70;;;4.40;99.90;;;4.17;100.00;101266.31;5186104;28;20524;-59
2022/12/05 09:45:26;;;;;;;13.27;6.85;;;4.40;99.90;;;4.21;100.00;101267.44;5185852;28;20052;-59
2022/12/05 09:48:05;;;;;;;14.02;7.05;;;4.40;99.90;;;4.23;100.00;101268.44;5184654;28;20050;-59
2022/12/05 09:50:45;;;;;;;12.60;6.45;;;4.40;99.90;;;4.21;100.00;101260.59;5185990;28;20050;-59
2022/12/05 09:53:26;;;;;;;13.02;5.93;;;4.40;99.90;;;4.20;100.00;101268.25;5185877;28;20046;-60
2022/12/05 09:56:05;;;;;;;13.95;6.68;;;4.40;99.90;;;4.20;100.00;101266.56;5185575;28;20038;-59
2022/12/05 09:58:43;;;;;;;12.70;6.22;;;4.40;99.90;;;4.21;100.00;101273.50;5185899;28;20077;-59
2022/12/05 10:01:36;;;;;;;15.65;7.47;;;4.40;99.90;;;4.25;100.00;101269.44;5185717;28;20503;-59
2022/12/05 10:04:28;;;;;;;14.65;7.57;;;4.40;99.90;;;4.32;100.00;101266.50;5183527;28;20057;-59
2022/12/05 10:07:11;;;;;;;15.45;7.40;;;4.60;99.90;;;4.31;100.00;101264.72;5182490;28;20053;-58
2022/12/05 10:10:01;;;;;;;15.30;7.75;;;4.50;99.90;;;4.26;100.00;101272.13;5184836;28;20046;-59
2022/12/05 10:12:48;;;;;;;15.75;7.47;;;4.50;99.90;;;4.33;100.00;101269.16;5185223;28;20046;-59
2022/12/05 10:15:30;;;;;;;16.50;7.63;;;4.60;99.90;;;4.38;100.00;101266.91;5185072;28;20514;-59
2022/12/05 10:18:15;;;;;;;14.32;7.28;;;4.60;99.90;;;4.37;100.00;101267.69;5184859;28;20038;-59
2022/12/05 10:20:51;;;;;;;13.50;6.68;;;4.60;99.90;;;4.35;100.00;101266.69;5184736;28;20050;-60
2022/12/05 10:23:27;;;;;;;15.13;7.80;;;4.60;99.90;;;4.32;100.00;101267.38;5184709;28;20499;-59
2022/12/05 10:26:05;;;;;;;15.18;7.15;;;4.60;99.90;;;4.29;100.00;101262.00;5184583;28;20048;-61
2022/12/05 10:28:45;;;;;;;12.98;6.90;;;4.50;99.90;;;4.35;100.00;101261.50;5184348;28;20056;-60
2022/12/05 10:31:24;;;;;;;21.95;8.55;;;4.60;99.90;;;4.54;100.00;101269.69;5182769;28;20048;-60
2022/12/05 10:34:05;;;;;;;19.23;8.27;;;4.80;99.90;;;4.65;100.00;101269.53;5182856;28;20092;-60
2022/12/05 10:36:37;;;;;;;15.10;7.35;;;4.80;99.90;;;4.63;100.00;101274.59;5181891;28;20050;-59
2022/12/05 10:39:10;;;;;;;18.25;9.13;;;4.90;99.90;;;4.62;100.00;101273.66;5183276;28;20113;-60
2022/12/05 10:41:42;;;;;;;14.43;6.97;;;4.90;99.90;;;4.60;100.00;101272.69;5183012;28;20265;-60
2022/12/05 10:44:15;;;;;;;15.95;7.40;;;4.80;99.90;;;4.58;100.00;101274.28;5182631;28;20056;-60
2022/12/05 10:46:47;;;;;;;15.10;7.15;;;4.80;99.90;;;4.56;100.00;101272.38;5182950;28;20034;-59
2022/12/05 10:49:20;;;;;;;14.30;6.50;;;4.80;99.90;;;4.53;100.00;101273.06;5183287;28;20050;-60
2022/12/05 10:51:53;;;;;;;14.40;6.20;;;4.80;99.90;;;4.48;100.00;101269.28;5180784;28;20482;-59
2022/12/05 10:54:33;;;;;;;16.60;7.63;;;4.70;99.90;;;4.45;100.00;101279.44;5182636;28;20086;-59